sensor_id;sensor_type;location;lat;lon;timestamp;P1;durP1;ratioP1;P2;durP2;ratioP2
65039;SDS011;51606;45.000;38.612;2023-10-31T02:32:05;9.07;;;4.68;;
65039;SDS011;51606;45.000;38.612;2023-10-31T02:34:34;45.67;;;4.28;;
65039;SDS011;51606;45.000;38.612;2023-10-31T02:37:00;10.60;;;3.40;;
65039;SDS011;51606;45.000;38.612;2023-10-31T02:39:27;7.85;;;3.30;;
65039;SDS011;51606;45.000;38.612;2023-10-31T02:41:54;6.13;;;2.60;;
65039;SDS011;51606;45.000;38.612;2023-10-31T02:44:20;4.82;;;3.17;;
65039;SDS011;51606;45.000;38.612;2023-10-31T02:46:47;4.85;;;2.85;;
65039;SDS011;51606;45.000;38.612;2023-10-31T02:49:14;7.90;;;3.65;;
65039;SDS011;51606;45.000;38.612;2023-10-31T02:51:41;3.90;;;2.60;;
65039;SDS011;51606;45.000;38.612;2023-10-31T02:54:08;2.60;;;1.98;;
65039;SDS011;51606;45.000;38.612;2023-10-31T02:56:35;10.52;;;3.00;;
65039;SDS011;51606;45.000;38.612;2023-10-31T02:59:03;10.73;;;2.97;;
65039;SDS011;51606;45.000;38.612;2023-10-31T03:01:30;9.93;;;2.47;;
65039;SDS011;51606;45.000;38.612;2023-10-31T03:03:59;2.53;;;2.00;;
65039;SDS011;51606;45.000;38.612;2023-10-31T03:06:27;2.55;;;2.20;;
65039;SDS011;51606;45.000;38.612;2023-10-31T03:08:55;3.90;;;2.13;;
65039;SDS011;51606;45.000;38.612;2023-10-31T03:11:24;4.15;;;2.70;;
65039;SDS011;51606;45.000;38.612;2023-10-31T03:13:53;4.75;;;2.08;;
65039;SDS011;51606;45.000;38.612;2023-10-31T03:16:22;1.40;;;1.05;;
65039;SDS011;51606;45.000;38.612;2023-10-31T03:18:49;2.83;;;1.52;;
65039;SDS011;51606;45.000;38.612;2023-10-31T03:21:16;1.63;;;1.52;;
65039;SDS011;51606;45.000;38.612;2023-10-31T03:23:47;5.20;;;1.80;;
65039;SDS011;51606;45.000;38.612;2023-10-31T03:26:16;1.20;;;1.10;;
65039;SDS011;51606;45.000;38.612;2023-10-31T03:28:43;2.42;;;1.55;;
65039;SDS011;51606;45.000;38.612;2023-10-31T03:31:11;2.28;;;1.55;;
65039;SDS011;51606;45.000;38.612;2023-10-31T03:33:39;4.47;;;1.90;;
65039;SDS011;51606;45.000;38.612;2023-10-31T03:36:07;5.57;;;1.80;;
65039;SDS011;51606;45.000;38.612;2023-10-31T03:38:35;2.97;;;2.05;;
65039;SDS011;51606;45.000;38.612;2023-10-31T03:41:03;1.83;;;1.35;;
65039;SDS011;51606;45.000;38.612;2023-10-31T03:43:30;10.07;;;1.90;;
65039;SDS011;51606;45.000;38.612;2023-10-31T03:45:57;2.92;;;1.67;;
65039;SDS011;51606;45.000;38.612;2023-10-31T03:48:24;1.40;;;1.30;;
65039;SDS011;51606;45.000;38.612;2023-10-31T03:50:52;3.00;;;2.05;;
65039;SDS011;51606;45.000;38.612;2023-10-31T03:53:19;2.58;;;2.00;;
65039;SDS011;51606;45.000;38.612;2023-10-31T03:55:45;2.95;;;2.13;;
65039;SDS011;51606;45.000;38.612;2023-10-31T03:58:12;1.40;;;1.25;;
65039;SDS011;51606;45.000;38.612;2023-10-31T04:00:39;3.70;;;1.98;;
65039;SDS011;51606;45.000;38.612;2023-10-31T04:03:07;2.20;;;1.75;;
65039;SDS011;51606;45.000;38.612;2023-10-31T04:05:35;3.25;;;1.63;;
65039;SDS011;51606;45.000;38.612;2023-10-31T04:08:02;4.72;;;2.60;;
65039;SDS011;51606;45.000;38.612;2023-10-31T04:10:28;2.30;;;2.08;;
65039;SDS011;51606;45.000;38.612;2023-10-31T04:12:55;3.72;;;2.30;;
65039;SDS011;51606;45.000;38.612;2023-10-31T04:15:21;14.30;;;2.22;;
65039;SDS011;51606;45.000;38.612;2023-10-31T04:17:48;3.30;;;2.47;;
65039;SDS011;51606;45.000;38.612;2023-10-31T04:20:15;2.45;;;1.85;;
65039;SDS011;51606;45.000;38.612;2023-10-31T04:22:41;4.38;;;1.30;;
65039;SDS011;51606;45.000;38.612;2023-10-31T04:25:08;2.08;;;1.70;;
65039;SDS011;51606;45.000;38.612;2023-10-31T04:27:34;1.38;;;1.15;;
65039;SDS011;51606;45.000;38.612;2023-10-31T04:30:01;4.80;;;2.78;;
65039;SDS011;51606;45.000;38.612;2023-10-31T04:32:28;2.80;;;1.90;;
65039;SDS011;51606;45.000;38.612;2023-10-31T04:34:55;4.50;;;2.67;;
65039;SDS011;51606;45.000;38.612;2023-10-31T04:37:21;8.20;;;2.97;;
65039;SDS011;51606;45.000;38.612;2023-10-31T04:39:49;2.97;;;1.80;;
65039;SDS011;51606;45.000;38.612;2023-10-31T04:42:15;4.00;;;2.10;;
65039;SDS011;51606;45.000;38.612;2023-10-31T04:44:43;1.67;;;1.45;;
65039;SDS011;51606;45.000;38.612;2023-10-31T04:47:09;1.77;;;1.65;;
65039;SDS011;51606;45.000;38.612;2023-10-31T04:49:36;1.73;;;1.40;;
65039;SDS011;51606;45.000;38.612;2023-10-31T04:52:02;3.33;;;2.13;;
65039;SDS011;51606;45.000;38.612;2023-10-31T04:54:30;6.70;;;1.92;;
65039;SDS011;51606;45.000;38.612;2023-10-31T04:56:57;2.15;;;1.67;;
65039;SDS011;51606;45.000;38.612;2023-10-31T04:59:23;11.55;;;1.83;;
65039;SDS011;51606;45.000;38.612;2023-10-31T05:01:50;2.08;;;1.75;;
65039;SDS011;51606;45.000;38.612;2023-10-31T05:04:18;2.15;;;1.75;;
65039;SDS011;51606;45.000;38.612;2023-10-31T05:06:44;5.25;;;2.72;;
65039;SDS011;51606;45.000;38.612;2023-10-31T05:09:11;5.65;;;2.35;;
65039;SDS011;51606;45.000;38.612;2023-10-31T05:11:39;6.30;;;2.60;;
65039;SDS011;51606;45.000;38.612;2023-10-31T05:14:07;8.70;;;2.78;;
65039;SDS011;51606;45.000;38.612;2023-10-31T05:16:39;9.20;;;2.55;;
65039;SDS011;51606;45.000;38.612;2023-10-31T05:19:06;4.38;;;2.83;;
65039;SDS011;51606;45.000;38.612;2023-10-31T05:21:33;3.05;;;2.22;;
65039;SDS011;51606;45.000;38.612;2023-10-31T05:24:00;3.20;;;2.33;;
65039;SDS011;51606;45.000;38.612;2023-10-31T05:26:26;4.32;;;2.88;;
65039;SDS011;51606;45.000;38.612;2023-10-31T05:28:57;4.18;;;2.50;;
65039;SDS011;51606;45.000;38.612;2023-10-31T05:31:24;3.80;;;2.05;;
65039;SDS011;51606;45.000;38.612;2023-10-31T05:33:52;8.85;;;2.70;;
65039;SDS011;51606;45.000;38.612;2023-10-31T05:36:23;4.15;;;2.70;;
65039;SDS011;51606;45.000;38.612;2023-10-31T05:38:50;8.73;;;2.45;;
65039;SDS011;51606;45.000;38.612;2023-10-31T05:41:17;2.30;;;1.58;;
65039;SDS011;51606;45.000;38.612;2023-10-31T05:43:44;3.95;;;2.38;;
65039;SDS011;51606;45.000;38.612;2023-10-31T05:46:11;6.70;;;3.17;;
65039;SDS011;51606;45.000;38.612;2023-10-31T05:48:43;14.13;;;3.50;;
65039;SDS011;51606;45.000;38.612;2023-10-31T05:51:11;6.38;;;2.85;;
65039;SDS011;51606;45.000;38.612;2023-10-31T05:53:39;6.93;;;3.30;;
65039;SDS011;51606;45.000;38.612;2023-10-31T05:56:08;7.15;;;3.20;;
65039;SDS011;51606;45.000;38.612;2023-10-31T05:58:36;4.68;;;2.67;;
65039;SDS011;51606;45.000;38.612;2023-10-31T06:01:04;6.90;;;3.15;;
65039;SDS011;51606;45.000;38.612;2023-10-31T06:03:34;9.05;;;2.60;;
65039;SDS011;51606;45.000;38.612;2023-10-31T06:06:01;5.03;;;2.53;;
65039;SDS011;51606;45.000;38.612;2023-10-31T06:08:28;5.93;;;2.67;;
65039;SDS011;51606;45.000;38.612;2023-10-31T06:10:58;9.38;;;2.92;;
65039;SDS011;51606;45.000;38.612;2023-10-31T06:13:25;11.80;;;2.50;;
65039;SDS011;51606;45.000;38.612;2023-10-31T06:15:55;3.63;;;2.38;;
65039;SDS011;51606;45.000;38.612;2023-10-31T06:18:23;4.53;;;2.65;;
65039;SDS011;51606;45.000;38.612;2023-10-31T06:20:50;3.10;;;2.20;;
65039;SDS011;51606;45.000;38.612;2023-10-31T06:23:17;8.07;;;2.50;;
65039;SDS011;51606;45.000;38.612;2023-10-31T06:25:43;8.35;;;2.50;;
65039;SDS011;51606;45.000;38.612;2023-10-31T06:28:10;4.15;;;2.35;;
65039;SDS011;51606;45.000;38.612;2023-10-31T06:30:36;6.80;;;2.60;;
65039;SDS011;51606;45.000;38.612;2023-10-31T06:33:03;15.23;;;2.47;;
65039;SDS011;51606;45.000;38.612;2023-10-31T06:35:29;16.90;;;3.30;;
65039;SDS011;51606;45.000;38.612;2023-10-31T06:37:56;5.35;;;2.60;;
65039;SDS011;51606;45.000;38.612;2023-10-31T06:40:24;4.28;;;2.58;;
65039;SDS011;51606;45.000;38.612;2023-10-31T06:42:50;6.82;;;3.10;;
65039;SDS011;51606;45.000;38.612;2023-10-31T06:45:17;3.90;;;2.67;;
65039;SDS011;51606;45.000;38.612;2023-10-31T06:47:44;7.93;;;3.22;;
65039;SDS011;51606;45.000;38.612;2023-10-31T06:50:10;6.50;;;3.28;;
65039;SDS011;51606;45.000;38.612;2023-10-31T06:52:37;6.85;;;3.72;;
65039;SDS011;51606;45.000;38.612;2023-10-31T06:55:04;5.72;;;3.45;;
65039;SDS011;51606;45.000;38.612;2023-10-31T06:57:31;7.75;;;3.83;;
65039;SDS011;51606;45.000;38.612;2023-10-31T06:59:58;13.40;;;4.50;;
65039;SDS011;51606;45.000;38.612;2023-10-31T07:02:24;14.43;;;4.18;;
65039;SDS011;51606;45.000;38.612;2023-10-31T07:04:52;12.05;;;4.85;;
65039;SDS011;51606;45.000;38.612;2023-10-31T07:07:18;11.50;;;4.45;;
65039;SDS011;51606;45.000;38.612;2023-10-31T07:09:44;12.07;;;4.55;;
65039;SDS011;51606;45.000;38.612;2023-10-31T07:12:12;7.45;;;4.32;;
65039;SDS011;51606;45.000;38.612;2023-10-31T07:14:38;13.10;;;4.13;;
65039;SDS011;51606;45.000;38.612;2023-10-31T07:17:05;6.60;;;3.72;;
65039;SDS011;51606;45.000;38.612;2023-10-31T07:19:31;4.93;;;3.03;;
65039;SDS011;51606;45.000;38.612;2023-10-31T07:21:58;12.30;;;4.50;;
65039;SDS011;51606;45.000;38.612;2023-10-31T07:24:25;10.23;;;3.78;;
65039;SDS011;51606;45.000;38.612;2023-10-31T07:26:54;9.60;;;3.88;;
65039;SDS011;51606;45.000;38.612;2023-10-31T07:29:21;7.20;;;3.53;;
65039;SDS011;51606;45.000;38.612;2023-10-31T07:31:47;8.48;;;3.63;;
65039;SDS011;51606;45.000;38.612;2023-10-31T07:34:14;8.63;;;3.90;;
65039;SDS011;51606;45.000;38.612;2023-10-31T07:36:41;7.05;;;3.13;;
65039;SDS011;51606;45.000;38.612;2023-10-31T07:39:07;8.85;;;3.47;;
65039;SDS011;51606;45.000;38.612;2023-10-31T07:41:34;9.02;;;3.55;;
65039;SDS011;51606;45.000;38.612;2023-10-31T07:44:00;5.78;;;3.38;;
65039;SDS011;51606;45.000;38.612;2023-10-31T07:46:27;6.93;;;2.67;;
65039;SDS011;51606;45.000;38.612;2023-10-31T07:48:54;5.47;;;2.83;;
65039;SDS011;51606;45.000;38.612;2023-10-31T07:51:20;5.18;;;2.55;;
65039;SDS011;51606;45.000;38.612;2023-10-31T07:53:47;8.20;;;2.42;;
65039;SDS011;51606;45.000;38.612;2023-10-31T07:56:14;4.63;;;2.40;;
65039;SDS011;51606;45.000;38.612;2023-10-31T07:58:49;4.18;;;2.22;;
65039;SDS011;51606;45.000;38.612;2023-10-31T08:01:16;4.65;;;2.47;;
65039;SDS011;51606;45.000;38.612;2023-10-31T08:03:47;4.97;;;2.50;;
65039;SDS011;51606;45.000;38.612;2023-10-31T08:06:14;8.35;;;2.85;;
65039;SDS011;51606;45.000;38.612;2023-10-31T08:08:41;11.23;;;2.70;;
65039;SDS011;51606;45.000;38.612;2023-10-31T08:11:08;4.88;;;2.30;;
65039;SDS011;51606;45.000;38.612;2023-10-31T08:13:38;9.80;;;2.55;;
65039;SDS011;51606;45.000;38.612;2023-10-31T08:16:05;6.10;;;3.08;;
65039;SDS011;51606;45.000;38.612;2023-10-31T08:18:33;6.15;;;2.78;;
65039;SDS011;51606;45.000;38.612;2023-10-31T08:21:00;5.65;;;3.03;;
65039;SDS011;51606;45.000;38.612;2023-10-31T08:23:28;11.43;;;2.80;;
65039;SDS011;51606;45.000;38.612;2023-10-31T08:25:55;10.15;;;2.50;;
65039;SDS011;51606;45.000;38.612;2023-10-31T08:28:22;3.50;;;2.20;;
65039;SDS011;51606;45.000;38.612;2023-10-31T08:30:49;6.10;;;2.70;;
65039;SDS011;51606;45.000;38.612;2023-10-31T08:33:15;9.98;;;3.20;;
65039;SDS011;51606;45.000;38.612;2023-10-31T08:35:44;7.95;;;3.47;;
65039;SDS011;51606;45.000;38.612;2023-10-31T08:38:11;6.32;;;2.88;;
65039;SDS011;51606;45.000;38.612;2023-10-31T08:40:37;7.95;;;3.08;;
65039;SDS011;51606;45.000;38.612;2023-10-31T08:43:04;6.72;;;3.15;;
65039;SDS011;51606;45.000;38.612;2023-10-31T08:45:32;11.65;;;3.25;;
65039;SDS011;51606;45.000;38.612;2023-10-31T08:48:00;5.05;;;2.53;;
65039;SDS011;51606;45.000;38.612;2023-10-31T08:50:26;7.50;;;2.95;;
65039;SDS011;51606;45.000;38.612;2023-10-31T08:52:53;9.23;;;3.45;;
65039;SDS011;51606;45.000;38.612;2023-10-31T08:55:20;7.03;;;3.30;;
65039;SDS011;51606;45.000;38.612;2023-10-31T08:57:47;9.05;;;3.05;;
65039;SDS011;51606;45.000;38.612;2023-10-31T09:00:14;15.23;;;3.25;;
65039;SDS011;51606;45.000;38.612;2023-10-31T09:02:41;15.95;;;3.65;;
65039;SDS011;51606;45.000;38.612;2023-10-31T09:05:08;13.15;;;3.53;;
65039;SDS011;51606;45.000;38.612;2023-10-31T09:07:35;6.82;;;3.10;;
65039;SDS011;51606;45.000;38.612;2023-10-31T09:10:02;12.88;;;2.70;;
65039;SDS011;51606;45.000;38.612;2023-10-31T09:12:31;17.13;;;3.33;;
65039;SDS011;51606;45.000;38.612;2023-10-31T09:14:57;11.50;;;3.40;;
65039;SDS011;51606;45.000;38.612;2023-10-31T09:17:24;10.48;;;3.00;;
65039;SDS011;51606;45.000;38.612;2023-10-31T09:19:51;9.70;;;3.35;;
65039;SDS011;51606;45.000;38.612;2023-10-31T09:22:18;9.00;;;3.10;;
65039;SDS011;51606;45.000;38.612;2023-10-31T09:24:44;9.05;;;3.63;;
65039;SDS011;51606;45.000;38.612;2023-10-31T09:27:11;9.88;;;2.92;;
65039;SDS011;51606;45.000;38.612;2023-10-31T09:29:37;16.35;;;3.55;;
65039;SDS011;51606;45.000;38.612;2023-10-31T09:32:04;11.27;;;3.05;;
65039;SDS011;51606;45.000;38.612;2023-10-31T09:34:36;9.90;;;3.38;;
65039;SDS011;51606;45.000;38.612;2023-10-31T09:37:02;7.00;;;3.28;;
65039;SDS011;51606;45.000;38.612;2023-10-31T09:39:29;7.25;;;3.00;;
65039;SDS011;51606;45.000;38.612;2023-10-31T09:41:55;12.20;;;3.05;;
65039;SDS011;51606;45.000;38.612;2023-10-31T09:44:22;6.45;;;3.00;;
65039;SDS011;51606;45.000;38.612;2023-10-31T09:46:50;11.32;;;3.15;;
65039;SDS011;51606;45.000;38.612;2023-10-31T09:49:18;9.25;;;3.28;;
65039;SDS011;51606;45.000;38.612;2023-10-31T09:51:46;6.10;;;3.10;;
65039;SDS011;51606;45.000;38.612;2023-10-31T09:54:14;8.98;;;3.40;;
65039;SDS011;51606;45.000;38.612;2023-10-31T09:56:42;16.33;;;3.33;;
65039;SDS011;51606;45.000;38.612;2023-10-31T09:59:09;5.78;;;2.72;;
65039;SDS011;51606;45.000;38.612;2023-10-31T10:01:35;11.70;;;3.40;;
65039;SDS011;51606;45.000;38.612;2023-10-31T10:04:03;16.17;;;3.30;;
65039;SDS011;51606;45.000;38.612;2023-10-31T10:06:29;6.93;;;3.03;;
65039;SDS011;51606;45.000;38.612;2023-10-31T10:08:56;14.75;;;2.90;;
65039;SDS011;51606;45.000;38.612;2023-10-31T10:11:22;5.47;;;2.67;;
65039;SDS011;51606;45.000;38.612;2023-10-31T10:13:52;8.30;;;3.03;;
65039;SDS011;51606;45.000;38.612;2023-10-31T10:16:29;4.80;;;2.60;;
65039;SDS011;51606;45.000;38.612;2023-10-31T10:19:14;3.60;;;2.38;;
65039;SDS011;51606;45.000;38.612;2023-10-31T10:21:55;6.55;;;3.08;;
65039;SDS011;51606;45.000;38.612;2023-10-31T10:24:23;11.93;;;2.92;;
65039;SDS011;51606;45.000;38.612;2023-10-31T10:26:51;6.57;;;2.25;;
65039;SDS011;51606;45.000;38.612;2023-10-31T10:29:18;6.85;;;2.33;;
65039;SDS011;51606;45.000;38.612;2023-10-31T10:31:45;8.10;;;2.38;;
65039;SDS011;51606;45.000;38.612;2023-10-31T10:34:15;6.90;;;2.40;;
65039;SDS011;51606;45.000;38.612;2023-10-31T10:36:46;9.57;;;2.63;;
65039;SDS011;51606;45.000;38.612;2023-10-31T10:39:16;4.18;;;2.25;;
65039;SDS011;51606;45.000;38.612;2023-10-31T10:41:46;9.43;;;2.15;;
65039;SDS011;51606;45.000;38.612;2023-10-31T10:44:22;7.28;;;1.90;;
65039;SDS011;51606;45.000;38.612;2023-10-31T10:46:56;6.95;;;2.20;;
65039;SDS011;51606;45.000;38.612;2023-10-31T10:49:24;3.35;;;1.90;;
65039;SDS011;51606;45.000;38.612;2023-10-31T10:51:58;2.92;;;2.10;;
65039;SDS011;51606;45.000;38.612;2023-10-31T10:54:40;5.78;;;2.10;;
65039;SDS011;51606;45.000;38.612;2023-10-31T10:57:15;4.60;;;2.30;;
65039;SDS011;51606;45.000;38.612;2023-10-31T10:59:47;9.25;;;2.33;;
65039;SDS011;51606;45.000;38.612;2023-10-31T11:02:17;8.63;;;2.90;;
65039;SDS011;51606;45.000;38.612;2023-10-31T11:04:45;9.68;;;2.40;;
65039;SDS011;51606;45.000;38.612;2023-10-31T11:07:13;22.20;;;3.15;;
65039;SDS011;51606;45.000;38.612;2023-10-31T11:09:41;3.22;;;2.47;;
65039;SDS011;51606;45.000;38.612;2023-10-31T11:12:10;11.70;;;3.05;;
65039;SDS011;51606;45.000;38.612;2023-10-31T11:14:38;9.43;;;4.22;;
65039;SDS011;51606;45.000;38.612;2023-10-31T11:17:14;10.00;;;3.35;;
65039;SDS011;51606;45.000;38.612;2023-10-31T11:19:51;6.70;;;3.75;;
65039;SDS011;51606;45.000;38.612;2023-10-31T11:22:20;12.45;;;3.08;;
65039;SDS011;51606;45.000;38.612;2023-10-31T11:24:50;15.40;;;3.85;;
65039;SDS011;51606;45.000;38.612;2023-10-31T11:27:17;6.05;;;2.92;;
65039;SDS011;51606;45.000;38.612;2023-10-31T11:29:44;12.23;;;5.53;;
65039;SDS011;51606;45.000;38.612;2023-10-31T11:32:11;19.25;;;7.45;;
65039;SDS011;51606;45.000;38.612;2023-10-31T11:34:38;17.38;;;8.27;;
65039;SDS011;51606;45.000;38.612;2023-10-31T11:37:24;19.30;;;7.80;;
65039;SDS011;51606;45.000;38.612;2023-10-31T11:42:41;27.63;;;13.23;;
65039;SDS011;51606;45.000;38.612;2023-10-31T11:45:08;26.83;;;12.07;;
65039;SDS011;51606;45.000;38.612;2023-10-31T11:47:47;46.97;;;14.38;;
65039;SDS011;51606;45.000;38.612;2023-10-31T11:50:15;33.72;;;14.52;;
65039;SDS011;51606;45.000;38.612;2023-10-31T11:52:42;32.85;;;13.68;;
65039;SDS011;51606;45.000;38.612;2023-10-31T11:55:12;38.92;;;15.15;;
65039;SDS011;51606;45.000;38.612;2023-10-31T11:57:39;40.85;;;18.60;;
65039;SDS011;51606;45.000;38.612;2023-10-31T12:00:06;64.57;;;27.58;;
65039;SDS011;51606;45.000;38.612;2023-10-31T12:02:38;74.32;;;31.40;;
65039;SDS011;51606;45.000;38.612;2023-10-31T12:05:10;71.10;;;31.92;;
65039;SDS011;51606;45.000;38.612;2023-10-31T12:07:44;64.38;;;30.95;;
65039;SDS011;51606;45.000;38.612;2023-10-31T12:10:11;68.20;;;29.00;;
65039;SDS011;51606;45.000;38.612;2023-10-31T12:12:39;58.42;;;29.00;;
65039;SDS011;51606;45.000;38.612;2023-10-31T12:15:08;93.47;;;41.20;;
65039;SDS011;51606;45.000;38.612;2023-10-31T12:17:35;127.10;;;49.88;;
65039;SDS011;51606;45.000;38.612;2023-10-31T12:20:03;133.93;;;55.72;;
65039;SDS011;51606;45.000;38.612;2023-10-31T12:22:34;133.15;;;55.22;;
65039;SDS011;51606;45.000;38.612;2023-10-31T12:25:04;128.88;;;53.63;;
65039;SDS011;51606;45.000;38.612;2023-10-31T12:27:48;121.03;;;53.88;;
65039;SDS011;51606;45.000;38.612;2023-10-31T12:30:17;114.75;;;49.90;;
65039;SDS011;51606;45.000;38.612;2023-10-31T12:32:45;109.97;;;47.15;;
65039;SDS011;51606;45.000;38.612;2023-10-31T12:35:20;105.00;;;44.15;;
65039;SDS011;51606;45.000;38.612;2023-10-31T12:37:49;121.07;;;44.90;;
65039;SDS011;51606;45.000;38.612;2023-10-31T12:40:20;107.47;;;45.15;;
65039;SDS011;51606;45.000;38.612;2023-10-31T12:42:48;103.82;;;44.08;;
65039;SDS011;51606;45.000;38.612;2023-10-31T12:45:16;98.32;;;39.85;;
65039;SDS011;51606;45.000;38.612;2023-10-31T12:47:44;78.95;;;35.72;;
65039;SDS011;51606;45.000;38.612;2023-10-31T12:50:14;84.28;;;36.53;;
65039;SDS011;51606;45.000;38.612;2023-10-31T12:52:46;75.72;;;33.92;;
65039;SDS011;51606;45.000;38.612;2023-10-31T12:55:14;82.35;;;34.72;;
65039;SDS011;51606;45.000;38.612;2023-10-31T12:57:42;63.15;;;29.38;;
65039;SDS011;51606;45.000;38.612;2023-10-31T13:00:10;60.20;;;26.45;;
65039;SDS011;51606;45.000;38.612;2023-10-31T13:02:41;47.00;;;21.70;;
65039;SDS011;51606;45.000;38.612;2023-10-31T13:08:17;34.67;;;16.45;;
65039;SDS011;51606;45.000;38.612;2023-10-31T13:10:43;35.33;;;16.33;;
65039;SDS011;51606;45.000;38.612;2023-10-31T13:13:10;45.45;;;15.93;;
65039;SDS011;51606;45.000;38.612;2023-10-31T13:15:37;32.72;;;14.80;;
65039;SDS011;51606;45.000;38.612;2023-10-31T13:18:04;35.38;;;14.20;;
65039;SDS011;51606;45.000;38.612;2023-10-31T13:20:31;36.10;;;14.30;;
65039;SDS011;51606;45.000;38.612;2023-10-31T13:22:58;30.42;;;15.13;;
65039;SDS011;51606;45.000;38.612;2023-10-31T13:25:27;28.95;;;14.10;;
65039;SDS011;51606;45.000;38.612;2023-10-31T13:27:54;27.73;;;13.75;;
65039;SDS011;51606;45.000;38.612;2023-10-31T13:30:23;34.80;;;13.57;;
65039;SDS011;51606;45.000;38.612;2023-10-31T13:32:51;35.63;;;12.32;;
65039;SDS011;51606;45.000;38.612;2023-10-31T13:35:19;27.42;;;11.32;;
65039;SDS011;51606;45.000;38.612;2023-10-31T13:37:46;23.15;;;11.18;;
65039;SDS011;51606;45.000;38.612;2023-10-31T13:40:13;27.65;;;11.40;;
65039;SDS011;51606;45.000;38.612;2023-10-31T13:42:40;33.55;;;12.40;;
65039;SDS011;51606;45.000;38.612;2023-10-31T13:45:07;24.52;;;9.82;;
65039;SDS011;51606;45.000;38.612;2023-10-31T13:47:33;33.38;;;12.18;;
65039;SDS011;51606;45.000;38.612;2023-10-31T13:50:00;32.70;;;12.93;;
65039;SDS011;51606;45.000;38.612;2023-10-31T13:52:27;19.67;;;10.65;;
65039;SDS011;51606;45.000;38.612;2023-10-31T13:54:54;22.42;;;10.40;;
65039;SDS011;51606;45.000;38.612;2023-10-31T13:57:21;24.90;;;9.38;;
65039;SDS011;51606;45.000;38.612;2023-10-31T13:59:49;22.08;;;10.13;;
65039;SDS011;51606;45.000;38.612;2023-10-31T14:02:16;27.52;;;11.25;;
65039;SDS011;51606;45.000;38.612;2023-10-31T14:04:43;31.52;;;10.98;;
65039;SDS011;51606;45.000;38.612;2023-10-31T14:07:11;37.28;;;9.48;;
65039;SDS011;51606;45.000;38.612;2023-10-31T14:09:46;17.58;;;8.55;;
65039;SDS011;51606;45.000;38.612;2023-10-31T14:12:13;23.17;;;8.60;;
65039;SDS011;51606;45.000;38.612;2023-10-31T14:14:40;17.17;;;7.82;;
65039;SDS011;51606;45.000;38.612;2023-10-31T14:17:07;21.83;;;6.95;;
65039;SDS011;51606;45.000;38.612;2023-10-31T14:19:34;20.15;;;6.10;;
65039;SDS011;51606;45.000;38.612;2023-10-31T14:22:01;22.10;;;5.93;;
65039;SDS011;51606;45.000;38.612;2023-10-31T14:24:27;12.88;;;4.55;;
65039;SDS011;51606;45.000;38.612;2023-10-31T14:26:54;19.52;;;6.05;;
65039;SDS011;51606;45.000;38.612;2023-10-31T14:29:22;13.38;;;4.55;;
65039;SDS011;51606;45.000;38.612;2023-10-31T14:31:49;12.50;;;4.30;;
65039;SDS011;51606;45.000;38.612;2023-10-31T14:34:15;23.00;;;4.40;;
65039;SDS011;51606;45.000;38.612;2023-10-31T14:36:42;8.07;;;4.22;;
65039;SDS011;51606;45.000;38.612;2023-10-31T14:39:09;13.63;;;4.70;;
65039;SDS011;51606;45.000;38.612;2023-10-31T14:41:37;6.88;;;3.72;;
65039;SDS011;51606;45.000;38.612;2023-10-31T14:44:03;12.82;;;4.63;;
65039;SDS011;51606;45.000;38.612;2023-10-31T14:46:30;18.35;;;3.70;;
65039;SDS011;51606;45.000;38.612;2023-10-31T14:48:58;11.52;;;3.88;;
65039;SDS011;51606;45.000;38.612;2023-10-31T14:51:25;23.48;;;3.17;;
65039;SDS011;51606;45.000;38.612;2023-10-31T14:53:52;5.63;;;3.50;;
65039;SDS011;51606;45.000;38.612;2023-10-31T14:56:18;13.20;;;3.38;;
65039;SDS011;51606;45.000;38.612;2023-10-31T14:58:45;14.63;;;3.15;;
65039;SDS011;51606;45.000;38.612;2023-10-31T15:01:12;18.08;;;3.35;;
65039;SDS011;51606;45.000;38.612;2023-10-31T15:03:40;6.97;;;3.20;;
65039;SDS011;51606;45.000;38.612;2023-10-31T15:06:07;8.55;;;3.05;;
65039;SDS011;51606;45.000;38.612;2023-10-31T15:08:35;12.50;;;2.90;;
65039;SDS011;51606;45.000;38.612;2023-10-31T15:11:02;16.95;;;3.40;;
65039;SDS011;51606;45.000;38.612;2023-10-31T15:13:29;13.75;;;3.17;;
65039;SDS011;51606;45.000;38.612;2023-10-31T15:15:56;25.80;;;3.55;;
65039;SDS011;51606;45.000;38.612;2023-10-31T15:18:23;10.80;;;3.13;;
65039;SDS011;51606;45.000;38.612;2023-10-31T15:20:49;16.60;;;3.95;;
65039;SDS011;51606;45.000;38.612;2023-10-31T15:23:16;18.17;;;3.80;;
65039;SDS011;51606;45.000;38.612;2023-10-31T15:25:42;8.68;;;3.70;;
65039;SDS011;51606;45.000;38.612;2023-10-31T15:28:09;30.25;;;6.80;;
65039;SDS011;51606;45.000;38.612;2023-10-31T15:30:36;31.38;;;6.18;;
65039;SDS011;51606;45.000;38.612;2023-10-31T15:33:03;20.35;;;6.97;;
65039;SDS011;51606;45.000;38.612;2023-10-31T15:35:31;15.70;;;5.85;;
65039;SDS011;51606;45.000;38.612;2023-10-31T15:37:57;21.98;;;7.57;;
65039;SDS011;51606;45.000;38.612;2023-10-31T15:40:24;13.95;;;5.85;;
65039;SDS011;51606;45.000;38.612;2023-10-31T15:42:51;21.30;;;5.38;;
65039;SDS011;51606;45.000;38.612;2023-10-31T15:45:17;31.08;;;8.02;;
65039;SDS011;51606;45.000;38.612;2023-10-31T15:47:44;27.15;;;6.03;;
65039;SDS011;51606;45.000;38.612;2023-10-31T15:50:10;9.93;;;4.82;;
65039;SDS011;51606;45.000;38.612;2023-10-31T15:52:37;15.07;;;5.45;;
65039;SDS011;51606;45.000;38.612;2023-10-31T15:55:05;9.90;;;4.18;;
65039;SDS011;51606;45.000;38.612;2023-10-31T15:57:33;7.68;;;4.07;;
65039;SDS011;51606;45.000;38.612;2023-10-31T16:00:00;11.27;;;4.78;;
65039;SDS011;51606;45.000;38.612;2023-10-31T16:02:27;11.77;;;5.20;;
65039;SDS011;51606;45.000;38.612;2023-10-31T16:04:54;16.10;;;5.43;;
65039;SDS011;51606;45.000;38.612;2023-10-31T16:07:21;10.50;;;4.63;;
65039;SDS011;51606;45.000;38.612;2023-10-31T16:09:47;21.17;;;5.68;;
65039;SDS011;51606;45.000;38.612;2023-10-31T16:12:14;14.52;;;5.38;;
65039;SDS011;51606;45.000;38.612;2023-10-31T16:14:41;12.40;;;4.55;;
65039;SDS011;51606;45.000;38.612;2023-10-31T16:17:08;30.60;;;8.05;;
65039;SDS011;51606;45.000;38.612;2023-10-31T16:19:35;60.97;;;14.65;;
65039;SDS011;51606;45.000;38.612;2023-10-31T16:22:02;16.05;;;7.22;;
65039;SDS011;51606;45.000;38.612;2023-10-31T16:24:29;20.45;;;7.72;;
65039;SDS011;51606;45.000;38.612;2023-10-31T16:26:56;31.20;;;7.13;;
65039;SDS011;51606;45.000;38.612;2023-10-31T16:29:22;20.95;;;6.32;;
65039;SDS011;51606;45.000;38.612;2023-10-31T16:31:49;63.15;;;18.70;;
65039;SDS011;51606;45.000;38.612;2023-10-31T16:34:16;53.33;;;22.95;;
65039;SDS011;51606;45.000;38.612;2023-10-31T16:36:46;30.10;;;12.95;;
65039;SDS011;51606;45.000;38.612;2023-10-31T16:39:14;56.60;;;20.52;;
65039;SDS011;51606;45.000;38.612;2023-10-31T16:41:41;33.80;;;13.52;;
65039;SDS011;51606;45.000;38.612;2023-10-31T16:44:08;46.00;;;15.60;;
65039;SDS011;51606;45.000;38.612;2023-10-31T16:46:36;53.88;;;15.52;;
65039;SDS011;51606;45.000;38.612;2023-10-31T16:49:09;43.40;;;13.10;;
65039;SDS011;51606;45.000;38.612;2023-10-31T16:51:36;31.88;;;13.45;;
65039;SDS011;51606;45.000;38.612;2023-10-31T16:54:02;36.35;;;12.60;;
65039;SDS011;51606;45.000;38.612;2023-10-31T16:56:29;23.42;;;10.70;;
65039;SDS011;51606;45.000;38.612;2023-10-31T16:58:56;40.45;;;12.60;;
65039;SDS011;51606;45.000;38.612;2023-10-31T17:01:23;35.75;;;9.57;;
65039;SDS011;51606;45.000;38.612;2023-10-31T17:03:50;28.92;;;10.88;;
65039;SDS011;51606;45.000;38.612;2023-10-31T17:06:17;20.27;;;8.75;;